createdAt,value
2023-01-30T00:03:48.183Z,11.13
2023-01-30T00:07:54.286Z,11.75
2023-01-30T00:11:57.302Z,12.00
2023-01-30T00:16:00.472Z,10.27
2023-01-30T00:20:03.985Z,11.23
2023-01-30T00:24:09.174Z,10.73
2023-01-30T00:28:12.511Z,10.25
2023-01-30T00:32:15.607Z,11.85
2023-01-30T00:36:19.025Z,11.45
2023-01-30T00:40:23.738Z,11.40
2023-01-30T00:44:44.049Z,11.93
2023-01-30T00:48:47.232Z,9.88
2023-01-30T00:52:50.571Z,11.85
2023-01-30T00:56:54.901Z,12.73
2023-01-30T01:00:58.131Z,10.93
2023-01-30T01:05:01.279Z,11.20
2023-01-30T01:09:04.846Z,10.15
2023-01-30T01:13:11.456Z,12.13
2023-01-30T01:17:14.661Z,12.60
2023-01-30T01:21:20.198Z,10.93
2023-01-30T01:25:24.738Z,11.25
2023-01-30T01:29:29.247Z,11.10
2023-01-30T01:33:32.423Z,11.27
2023-01-30T01:37:35.936Z,11.60
2023-01-30T01:41:38.848Z,8.63
2023-01-30T01:45:45.084Z,10.93
2023-01-30T01:49:48.180Z,11.48
2023-01-30T01:53:57.928Z,11.63
2023-01-30T01:58:05.747Z,12.57
2023-01-30T02:02:13.697Z,10.32
2023-01-30T02:06:18.440Z,10.90
2023-01-30T02:10:27.951Z,10.43
2023-01-30T02:14:32.637Z,10.40
2023-01-30T02:18:40.909Z,10.70
2023-01-30T02:23:17.380Z,9.85
2023-01-30T02:27:40.193Z,11.00
2023-01-30T02:31:51.522Z,10.35
2023-01-30T02:36:08.976Z,10.50
2023-01-30T02:40:19.423Z,10.60
2023-01-30T02:44:30.314Z,9.90
2023-01-30T02:48:40.005Z,10.80
2023-01-30T02:52:45.249Z,10.00
2023-01-30T02:56:52.622Z,11.98
2023-01-30T03:01:29.466Z,9.98
2023-01-30T03:05:46.212Z,11.73
2023-01-30T03:09:56.512Z,11.82
2023-01-30T03:14:11.016Z,12.75
2023-01-30T03:18:14.015Z,11.50
2023-01-30T03:22:18.686Z,11.10
2023-01-30T03:26:25.160Z,14.02
2023-01-30T03:30:28.395Z,11.75
2023-01-30T03:34:31.645Z,9.70
2023-01-30T03:38:37.925Z,12.02
2023-01-30T03:42:42.438Z,12.38
2023-01-30T03:46:45.763Z,10.57
2023-01-30T03:50:49.289Z,10.73
2023-01-30T03:54:54.784Z,12.13
2023-01-30T03:58:58.203Z,11.30
2023-01-30T04:03:01.382Z,11.30
2023-01-30T04:07:04.334Z,11.52
2023-01-30T04:11:08.912Z,12.07
2023-01-30T04:15:12.902Z,10.57
2023-01-30T04:19:16.310Z,11.13
2023-01-30T04:23:19.593Z,12.00
2023-01-30T04:27:24.245Z,11.77
2023-01-30T04:31:27.366Z,12.60
2023-01-30T04:35:30.548Z,12.75
2023-01-30T04:39:34.045Z,11.57
2023-01-30T04:43:38.673Z,14.40
2023-01-30T04:47:41.909Z,12.52
2023-01-30T04:51:45.248Z,11.90
2023-01-30T04:55:48.686Z,12.57
2023-01-30T04:59:53.243Z,12.63
2023-01-30T05:03:56.312Z,11.90
2023-01-30T05:07:59.673Z,12.88
2023-01-30T05:12:03.167Z,12.57
2023-01-30T05:26:56.371Z,11.57
2023-01-30T05:31:02.739Z,10.15
2023-01-30T05:35:06.936Z,12.10
2023-01-30T05:39:10.334Z,10.73
2023-01-30T05:43:18.024Z,12.77
2023-01-30T05:47:21.223Z,11.98
2023-01-30T05:51:26.219Z,11.57
2023-01-30T05:55:29.349Z,9.27
2023-01-30T05:59:33.633Z,10.63
2023-01-30T06:03:37.427Z,11.82
2023-01-30T06:07:41.033Z,9.65
2023-01-30T06:11:44.540Z,9.68
2023-01-30T06:15:49.206Z,10.32
2023-01-30T06:19:52.434Z,9.40
2023-01-30T06:23:55.799Z,9.20
2023-01-30T06:27:58.857Z,8.32
2023-01-30T06:32:03.678Z,9.40
2023-01-30T06:36:07.337Z,7.25
2023-01-30T06:40:12.700Z,9.00
2023-01-30T06:44:15.920Z,8.10
2023-01-30T06:48:21.195Z,7.75
2023-01-30T06:52:24.204Z,7.22
2023-01-30T06:56:27.938Z,7.43
2023-01-30T07:00:31.547Z,9.32
2023-01-30T07:04:36.397Z,8.68
2023-01-30T07:08:40.968Z,5.88
2023-01-30T07:12:44.484Z,7.60
2023-01-30T07:16:47.661Z,9.07
2023-01-30T07:20:52.509Z,9.20
2023-01-30T07:24:55.647Z,7.25
2023-01-30T07:28:58.851Z,9.18
2023-01-30T07:33:02.354Z,6.85
2023-01-30T07:37:06.882Z,5.13
2023-01-30T07:41:09.739Z,5.82
2023-01-30T07:45:13.671Z,5.32
2023-01-30T07:49:17.038Z,5.85
2023-01-30T07:53:21.767Z,6.03
2023-01-30T07:57:24.724Z,5.72
2023-01-30T08:01:28.237Z,5.47
2023-01-30T08:05:31.573Z,5.05
2023-01-30T08:09:36.111Z,5.00
2023-01-30T08:13:39.092Z,4.57
2023-01-30T08:17:42.035Z,4.93
2023-01-30T08:21:45.372Z,5.07
2023-01-30T08:25:49.860Z,5.25
2023-01-30T08:29:52.971Z,4.07
2023-01-30T08:33:56.003Z,5.85
2023-01-30T08:37:59.956Z,3.97
2023-01-30T08:42:04.939Z,4.68
2023-01-30T08:46:09.285Z,5.22
2023-01-30T08:50:13.230Z,3.08
2023-01-30T08:54:16.348Z,3.72
2023-01-30T08:58:21.423Z,4.80
2023-01-30T09:02:24.759Z,4.00
2023-01-30T09:06:28.230Z,3.20
2023-01-30T09:10:31.290Z,2.92
2023-01-30T09:14:36.136Z,3.75
2023-01-30T09:18:41.059Z,3.58
2023-01-30T09:22:44.042Z,3.35
2023-01-30T09:26:47.579Z,3.47
2023-01-30T09:30:52.175Z,3.65
2023-01-30T09:34:55.391Z,2.88
2023-01-30T09:38:58.751Z,3.53
2023-01-30T09:43:20.552Z,3.17
2023-01-30T09:47:36.506Z,3.83
2023-01-30T09:51:52.053Z,2.80
2023-01-30T09:55:58.970Z,3.55
2023-01-30T10:00:08.853Z,2.83
2023-01-30T10:04:21.114Z,2.22
2023-01-30T10:08:52.282Z,3.03
2023-01-30T10:13:07.744Z,2.13
2023-01-30T10:17:25.913Z,2.53
2023-01-30T10:21:42.357Z,2.75
2023-01-30T10:25:48.511Z,1.98
2023-01-30T10:29:57.808Z,2.33
2023-01-30T10:34:04.687Z,2.60
2023-01-30T10:38:17.834Z,2.67
2023-01-30T10:42:27.851Z,1.83
2023-01-30T10:46:49.253Z,2.28
2023-01-30T10:50:58.239Z,2.65
2023-01-30T10:55:22.132Z,2.75
2023-01-30T10:59:46.047Z,2.63
2023-01-30T11:03:54.440Z,2.10
2023-01-30T11:07:57.865Z,2.00
2023-01-30T11:12:02.337Z,2.35
2023-01-30T11:16:08.781Z,1.67
2023-01-30T11:20:16.972Z,3.20
2023-01-30T11:24:22.412Z,3.30
2023-01-30T11:28:28.290Z,2.20
2023-01-30T11:32:31.769Z,2.50
2023-01-30T11:36:37.008Z,2.85
2023-01-30T11:40:41.772Z,2.30
2023-01-30T11:44:46.082Z,1.95
2023-01-30T11:49:02.320Z,1.85
2023-01-30T11:53:31.259Z,2.20
2023-01-30T11:57:43.627Z,1.88
2023-01-30T12:01:48.726Z,1.20
2023-01-30T12:05:52.042Z,1.30
2023-01-30T12:09:56.227Z,1.55
2023-01-30T12:14:10.726Z,1.27
2023-01-30T12:18:23.859Z,0.95
2023-01-30T12:22:33.030Z,1.50
2023-01-30T12:26:42.444Z,1.08
2023-01-30T12:30:51.012Z,1.50
2023-01-30T12:34:56.449Z,1.38
2023-01-30T12:39:14.684Z,1.33
2023-01-30T12:43:41.043Z,1.20
2023-01-30T12:47:59.612Z,1.40
2023-01-30T12:52:30.674Z,1.90
2023-01-30T12:56:59.164Z,1.20
2023-01-30T13:01:18.173Z,1.95
2023-01-30T13:05:36.936Z,1.55
2023-01-30T13:09:51.020Z,1.88
2023-01-30T13:14:00.741Z,1.20
2023-01-30T13:18:15.194Z,1.88
2023-01-30T13:22:24.121Z,1.55
2023-01-30T13:26:35.255Z,1.27
2023-01-30T13:30:40.487Z,1.35
2023-01-30T13:34:46.582Z,1.60
2023-01-30T13:39:00.121Z,2.15
2023-01-30T13:43:11.692Z,1.90
2023-01-30T13:47:28.507Z,1.85
2023-01-30T13:51:44.547Z,1.58
2023-01-30T13:55:50.819Z,2.40
2023-01-30T14:00:18.712Z,2.58
2023-01-30T14:04:45.350Z,2.40
2023-01-30T14:08:55.550Z,2.17
2023-01-30T14:13:07.395Z,2.78
2023-01-30T14:17:17.252Z,3.07
2023-01-30T14:21:24.816Z,2.35
2023-01-30T14:25:45.845Z,1.88
2023-01-30T14:29:55.757Z,2.42
2023-01-30T14:34:00.121Z,1.90
2023-01-30T14:38:13.357Z,3.03
2023-01-30T14:42:24.559Z,2.15
2023-01-30T14:46:56.906Z,2.40
2023-01-30T14:51:37.139Z,2.67
2023-01-30T14:55:40.616Z,2.30
2023-01-30T15:00:02.777Z,2.30
2023-01-30T15:04:17.707Z,3.28
2023-01-30T15:08:25.621Z,3.05
2023-01-30T15:12:59.386Z,2.40
2023-01-30T15:17:19.714Z,1.77
2023-01-30T15:21:59.042Z,2.75
2023-01-30T15:26:25.423Z,2.50
2023-01-30T15:30:44.956Z,2.33
2023-01-30T15:34:53.410Z,2.63
2023-01-30T15:39:01.823Z,2.40
2023-01-30T15:43:25.142Z,2.50
2023-01-30T15:47:46.091Z,2.45
2023-01-30T15:51:49.302Z,2.83
2023-01-30T15:55:53.745Z,2.20
2023-01-30T15:59:59.309Z,2.85
2023-01-30T16:04:08.392Z,2.55
2023-01-30T16:08:21.052Z,2.40
2023-01-30T16:16:30.461Z,2.45
2023-01-30T16:20:36.227Z,3.70
2023-01-30T16:24:40.069Z,3.67
2023-01-30T16:28:43.748Z,3.85
2023-01-30T16:32:49.194Z,4.85
2023-01-30T16:36:52.314Z,4.63
2023-01-30T16:40:56.006Z,3.75
2023-01-30T16:45:36.996Z,4.85
2023-01-30T16:49:46.693Z,3.10
2023-01-30T16:53:54.654Z,4.25
2023-01-30T16:58:00.952Z,3.90
2023-01-30T17:02:06.480Z,3.05
2023-01-30T17:06:21.447Z,3.65
2023-01-30T17:10:53.595Z,4.43
2023-01-30T17:15:28.027Z,4.87
2023-01-30T17:19:31.865Z,3.58
2023-01-30T17:23:36.479Z,3.50
2023-01-30T17:27:39.703Z,3.92
2023-01-30T17:31:49.090Z,2.92
2023-01-30T17:35:52.090Z,4.28
2023-01-30T17:39:56.900Z,3.00
2023-01-30T17:44:00.406Z,3.33
2023-01-30T17:48:03.277Z,3.85
2023-01-30T17:52:07.394Z,2.90
2023-01-30T17:56:20.969Z,3.50
2023-01-30T18:00:25.701Z,3.35
2023-01-30T18:04:28.678Z,3.10
2023-01-30T18:08:32.182Z,3.10
2023-01-30T18:12:36.569Z,3.42
2023-01-30T18:16:40.182Z,3.17
2023-01-30T18:20:43.302Z,3.05
2023-01-30T18:24:46.353Z,3.83
2023-01-30T18:28:53.229Z,4.15
2023-01-30T18:32:56.784Z,2.88
2023-01-30T18:36:59.827Z,3.25
2023-01-30T18:41:08.415Z,4.10
2023-01-30T18:45:13.704Z,3.47
2023-01-30T18:49:16.598Z,3.03
2023-01-30T18:53:19.930Z,3.55
2023-01-30T18:57:23.089Z,2.72
2023-01-30T19:01:29.799Z,3.80
2023-01-30T19:05:33.363Z,4.05
2023-01-30T19:09:36.794Z,3.72
2023-01-30T19:13:39.658Z,3.47
2023-01-30T19:17:44.418Z,3.08
2023-01-30T19:21:47.803Z,3.95
2023-01-30T19:25:55.211Z,2.53
2023-01-30T19:29:58.893Z,3.05
2023-01-30T19:34:05.108Z,4.47
2023-01-30T19:38:08.006Z,3.38
2023-01-30T19:42:11.450Z,3.28
2023-01-30T19:46:15.374Z,3.53
2023-01-30T19:50:20.743Z,3.10
2023-01-30T19:54:24.159Z,3.97
2023-01-30T19:58:27.421Z,3.22
2023-01-30T20:02:31.276Z,3.20
2023-01-30T20:06:37.587Z,3.20
2023-01-30T20:10:44.028Z,3.85
2023-01-30T20:14:47.915Z,3.30
2023-01-30T20:18:56.467Z,3.20
2023-01-30T20:23:02.923Z,3.30
2023-01-30T20:27:06.845Z,2.83
2023-01-30T20:31:12.744Z,3.88
2023-01-30T20:35:16.162Z,2.67
2023-01-30T20:39:22.209Z,3.10
2023-01-30T20:43:25.845Z,3.63
2023-01-30T20:47:29.344Z,3.13
2023-01-30T20:51:34.970Z,4.10
2023-01-30T20:55:39.785Z,3.47
2023-01-30T20:59:43.226Z,4.53
2023-01-30T21:03:50.564Z,3.35
2023-01-30T21:07:53.879Z,3.00
2023-01-30T21:11:58.543Z,3.45
2023-01-30T21:16:04.042Z,4.38
2023-01-30T21:20:07.617Z,4.40
2023-01-30T21:24:14.169Z,3.60
2023-01-30T21:28:18.480Z,2.53
2023-01-30T21:32:21.494Z,3.30
2023-01-30T21:36:24.972Z,3.22
2023-01-30T21:40:45.511Z,3.05
2023-01-30T21:44:50.031Z,3.63
2023-01-30T21:48:54.009Z,3.70
2023-01-30T21:52:57.743Z,3.38
2023-01-30T21:57:00.899Z,2.85
2023-01-30T22:01:07.458Z,3.15
2023-01-30T22:05:11.775Z,3.08
2023-01-30T22:09:16.619Z,2.72
2023-01-30T22:13:19.962Z,2.83
2023-01-30T22:17:26.527Z,2.25
2023-01-30T22:21:32.752Z,3.35
2023-01-30T22:25:36.260Z,3.05
2023-01-30T22:29:39.688Z,4.70
2023-01-30T22:33:47.185Z,3.22
2023-01-30T22:37:50.673Z,4.13
2023-01-30T22:41:53.821Z,3.08
2023-01-30T22:46:00.986Z,3.28
2023-01-30T22:50:07.042Z,2.90
2023-01-30T22:54:16.539Z,2.45
2023-01-30T22:58:19.695Z,3.78
2023-01-30T23:02:23.042Z,3.72
2023-01-30T23:06:30.247Z,3.33
2023-01-30T23:10:33.405Z,3.78
2023-01-30T23:14:37.122Z,2.58
2023-01-30T23:18:59.918Z,3.25
2023-01-30T23:27:13.171Z,2.53
2023-01-30T23:31:18.755Z,2.78
2023-01-30T23:35:22.291Z,2.47
2023-01-30T23:39:26.966Z,2.70
2023-01-30T23:43:31.423Z,2.85
2023-01-30T23:47:34.365Z,2.92
2023-01-30T23:51:39.107Z,3.25
2023-01-30T23:55:51.850Z,3.75
